Time;durP1;ratioP1;P1;durP2;ratioP2;P2;SDS_P1;SDS_P2;PMS_P1;PMS_P2;Temp;Humidity;BMP_temperature;BMP_pressure;BME280_temperature;BME280_humidity;BME280_pressure;Samples;Min_cycle;Max_cycle;Signal;HPM_P1;HPM_P2
2023/06/23 00:00:25;;;;;;;;;;;;;;;23.15;97.07;100639.16;4971148;28;19975;-66
2023/06/23 00:02:51;;;;;;;;;;;;;;;23.12;97.33;100633.94;4971735;28;19997;-66
2023/06/23 00:05:16;;;;;;;;;;;;;;;22.93;97.83;100634.16;4971268;28;20360;-67
2023/06/23 00:07:42;;;;;;;;;;;;;;;22.85;98.58;100636.00;4971687;28;19914;-69
2023/06/23 00:10:10;;;;;;;;;;;;;;;22.78;98.72;100625.53;4971836;28;19914;-70
2023/06/23 00:12:36;;;;;;;;;;;;;;;22.73;99.27;100629.97;4977431;28;19918;-69
2023/06/23 00:15:02;;;;;;;;;;;;;;;22.69;99.67;100620.38;4960614;28;20306;-65
2023/06/23 00:17:28;;;;;;;;;;;;;;;22.59;100.00;100630.13;4977979;28;19925;-67
2023/06/23 00:19:53;;;;;;;;;;;;;;;22.61;100.00;100635.38;4977842;28;19922;-66
2023/06/23 00:22:18;;;;;;;;;;;;;;;22.56;100.00;100632.78;4977742;28;20364;-66
2023/06/23 00:24:44;;;;;;;;;;;;;;;22.47;100.00;100625.00;4977768;28;20375;-67
2023/06/23 00:27:09;;;;;;;;;;;;;;;22.55;100.00;100623.13;4977174;28;20521;-69
2023/06/23 00:29:34;;;;;;;;;;;;;;;22.70;99.94;100623.88;4977829;28;20419;-69
2023/06/23 00:31:59;;;;;;;;;;;;;;;22.57;99.99;100631.03;4977939;28;19953;-66
2023/06/23 00:34:25;;;;;;;;;;;;;;;22.52;100.00;100632.81;4977670;28;19914;-66
2023/06/23 00:36:50;;;;;;;;;;;;;;;22.60;99.98;100636.25;4977814;28;19936;-66
2023/06/23 00:39:16;;;;;;;;;;;;;;;22.58;100.00;100632.75;4977362;28;19914;-66
2023/06/23 00:41:41;;;;;;;;;;;;;;;22.60;99.91;100618.72;4977973;28;19914;-69
2023/06/23 00:44:07;;;;;;;;;;;;;;;22.57;100.00;100626.63;4977333;28;19910;-65
2023/06/23 00:46:33;;;;;;;;;;;;;;;22.64;100.00;100616.91;4977807;28;19993;-66
2023/06/23 00:49:00;;;;;;;;;;;;;;;22.69;99.93;100622.13;4977444;28;20006;-69
2023/06/23 00:51:26;;;;;;;;;;;;;;;22.71;99.58;100625.63;4977624;28;19914;-66
2023/06/23 00:53:52;;;;;;;;;;;;;;;22.55;100.00;100633.66;4977185;28;19972;-68
2023/06/23 00:56:17;;;;;;;;;;;;;;;22.49;100.00;100622.34;4960228;28;19918;-65
2023/06/23 00:58:43;;;;;;;;;;;;;;;22.60;100.00;100629.25;4977428;28;19917;-66
2023/06/23 01:01:10;;;;;;;;;;;;;;;22.71;100.00;100623.00;4977372;28;20380;-65
2023/06/23 01:03:36;;;;;;;;;;;;;;;22.80;100.00;100624.66;4977372;28;19992;-66
2023/06/23 01:06:09;;;;;;;;;;;;;;;22.86;100.00;100628.06;4977520;28;19918;-69
2023/06/23 01:08:36;;;;;;;;;;;;;;;22.80;100.00;100627.28;4977405;28;19972;-68
2023/06/23 01:11:12;;;;;;;;;;;;;;;22.77;100.00;100626.41;4976837;28;20344;-65
2023/06/23 01:13:43;;;;;;;;;;;;;;;22.80;100.00;100627.28;4965979;28;19914;-67
2023/06/23 01:16:27;;;;;;;;;;;;;;;22.83;100.00;100627.25;4977303;28;19965;-69
2023/06/23 01:19:09;;;;;;;;;;;;;;;22.91;100.00;100628.03;4976948;28;19972;-69
2023/06/23 01:21:53;;;;;;;;;;;;;;;22.93;99.53;100626.25;4976633;28;19945;-69
2023/06/23 01:24:21;;;;;;;;;;;;;;;22.94;99.29;100631.50;4973282;28;20372;-69
2023/06/23 01:27:16;;;;;;;;;;;;;;;22.80;99.15;100632.56;4973925;28;19945;-65
2023/06/23 01:29:44;;;;;;;;;;;;;;;22.63;98.93;100630.97;4913840;29;19918;-66
2023/06/23 01:32:21;;;;;;;;;;;;;;;22.60;99.12;100638.88;4914319;29;19919;-66
2023/06/23 01:34:49;;;;;;;;;;;;;;;22.66;98.67;100636.19;4914156;29;19976;-65
2023/06/23 01:37:18;;;;;;;;;;;;;;;22.71;98.24;100625.63;4914135;29;19923;-69
2023/06/23 01:39:46;;;;;;;;;;;;;;;22.62;98.75;100621.34;4911637;29;20329;-70
2023/06/23 01:42:14;;;;;;;;;;;;;;;22.45;99.76;100624.13;4913578;29;19951;-68
2023/06/23 01:44:43;;;;;;;;;;;;;;;22.43;100.00;100629.41;4914276;29;19919;-66
2023/06/23 01:47:10;;;;;;;;;;;;;;;22.51;100.00;100628.47;4914268;29;19916;-65
2023/06/23 01:49:37;;;;;;;;;;;;;;;22.58;99.29;100631.03;4895063;29;19923;-65
2023/06/23 01:52:04;;;;;;;;;;;;;;;22.41;99.22;100623.28;4894678;29;19916;-69
2023/06/23 01:54:30;;;;;;;;;;;;;;;22.23;100.00;100623.41;4895027;29;19915;-66
2023/06/23 01:56:56;;;;;;;;;;;;;;;22.07;100.00;100627.94;4894762;29;19919;-66
2023/06/23 01:59:22;;;;;;;;;;;;;;;22.03;100.00;100629.75;4894763;29;20089;-68
2023/06/23 02:01:48;;;;;;;;;;;;;;;22.09;100.00;100636.69;4894972;29;20351;-65
2023/06/23 02:04:14;;;;;;;;;;;;;;;22.14;100.00;100645.41;4894837;29;19915;-65
2023/06/23 02:06:41;;;;;;;;;;;;;;;22.12;100.00;100645.44;4926150;29;19915;-65
2023/06/23 02:09:14;;;;;;;;;;;;;;;22.02;100.00;100656.00;4951679;29;19921;-67
2023/06/23 02:11:40;;;;;;;;;;;;;;;21.94;100.00;100651.72;4951312;29;20013;-67
2023/06/23 02:14:06;;;;;;;;;;;;;;;21.83;100.00;100653.50;4951750;29;20025;-68
2023/06/23 02:16:32;;;;;;;;;;;;;;;21.85;100.00;100651.75;4951432;29;19926;-68
2023/06/23 02:18:58;;;;;;;;;;;;;;;21.87;100.00;100651.75;4951539;29;20013;-66
2023/06/23 02:21:24;;;;;;;;;;;;;;;21.86;100.00;100660.50;4969298;28;19992;-64
2023/06/23 02:23:51;;;;;;;;;;;;;;;21.86;100.00;100666.66;4973423;28;20558;-66
2023/06/23 02:26:16;;;;;;;;;;;;;;;21.72;100.00;100666.75;4973535;28;19918;-66
2023/06/23 02:28:47;;;;;;;;;;;;;;;21.64;100.00;100669.38;4973422;28;20392;-69
2023/06/23 02:31:12;;;;;;;;;;;;;;;21.55;100.00;100671.19;4972746;28;19914;-67
2023/06/23 02:33:38;;;;;;;;;;;;;;;21.40;100.00;100672.13;4972759;28;19925;-64
2023/06/23 02:36:05;;;;;;;;;;;;;;;21.26;100.00;100680.03;4973154;28;20384;-67
2023/06/23 02:38:31;;;;;;;;;;;;;;;21.13;100.00;100671.34;4972687;28;19929;-66
2023/06/23 02:40:57;;;;;;;;;;;;;;;21.10;100.00;100680.13;4973072;28;20012;-65
2023/06/23 02:43:31;;;;;;;;;;;;;;;21.02;100.00;100668.75;4973066;28;19921;-65
2023/06/23 02:45:58;;;;;;;;;;;;;;;20.95;100.00;100669.66;4972641;28;19921;-67
2023/06/23 02:48:26;;;;;;;;;;;;;;;20.94;100.00;100668.78;4972632;28;20012;-68
2023/06/23 02:50:53;;;;;;;;;;;;;;;20.97;100.00;100668.78;4972642;28;20399;-66
2023/06/23 02:53:21;;;;;;;;;;;;;;;20.95;100.00;100669.66;4972189;28;19960;-63
2023/06/23 02:55:49;;;;;;;;;;;;;;;20.94;100.00;100666.16;4972567;28;19921;-68
2023/06/23 02:58:15;;;;;;;;;;;;;;;20.99;100.00;100661.75;4971449;28;19922;-69
2023/06/23 03:00:42;;;;;;;;;;;;;;;20.91;100.00;100665.28;4971282;28;19918;-69
2023/06/23 03:03:12;;;;;;;;;;;;;;;20.82;100.00;100666.19;4972662;28;20004;-69
2023/06/23 03:05:37;;;;;;;;;;;;;;;20.74;100.00;100668.81;4954547;28;20427;-66
2023/06/23 03:08:02;;;;;;;;;;;;;;;20.68;100.00;100668.81;4972200;28;19945;-71
2023/06/23 03:10:28;;;;;;;;;;;;;;;20.67;100.00;100672.31;4971925;28;20316;-66
2023/06/23 03:12:53;;;;;;;;;;;;;;;20.73;100.00;100669.69;4971490;28;19968;-67
2023/06/23 03:15:19;;;;;;;;;;;;;;;20.82;100.00;100663.56;4953494;28;20300;-65
2023/06/23 03:17:46;;;;;;;;;;;;;;;20.77;100.00;100663.59;4958093;28;19957;-65
2023/06/23 03:20:15;;;;;;;;;;;;;;;20.83;100.00;100665.31;4951402;28;20036;-65
2023/06/23 03:22:48;;;;;;;;;;;;;;;20.83;100.00;100668.78;4952915;28;19926;-65
2023/06/23 03:25:18;;;;;;;;;;;;;;;20.83;100.00;100663.53;4952862;28;19941;-69
2023/06/23 03:27:45;;;;;;;;;;;;;;;20.89;100.00;100664.44;4965245;28;19926;-68
2023/06/23 03:30:14;;;;;;;;;;;;;;;20.95;100.00;100661.78;4952713;28;20385;-68
2023/06/23 03:32:43;;;;;;;;;;;;;;;20.99;100.00;100661.75;4952141;28;19953;-69
2023/06/23 03:35:10;;;;;;;;;;;;;;;20.51;100.00;100671.44;4953182;28;20015;-68
2023/06/23 03:37:38;;;;;;;;;;;;;;;20.44;100.00;100665.34;4952356;28;19921;-67
2023/06/23 03:40:06;;;;;;;;;;;;;;;20.48;100.00;100668.84;4952732;28;19914;-68
2023/06/23 03:42:33;;;;;;;;;;;;;;;20.62;100.00;100674.06;4952325;28;20005;-67
2023/06/23 03:45:00;;;;;;;;;;;;;;;20.82;100.00;100672.31;4951457;28;19921;-68
2023/06/23 03:47:28;;;;;;;;;;;;;;;20.91;100.00;100679.28;4957618;28;19918;-70
2023/06/23 03:50:00;;;;;;;;;;;;;;;21.00;100.00;100681.03;4971844;28;19914;-68
2023/06/23 03:52:27;;;;;;;;;;;;;;;21.13;100.00;100677.50;4954427;28;20380;-67
2023/06/23 03:54:54;;;;;;;;;;;;;;;21.24;100.00;100680.06;4971805;28;20012;-64
2023/06/23 03:57:22;;;;;;;;;;;;;;;21.29;100.00;100682.69;4971575;28;20070;-65
2023/06/23 03:59:49;;;;;;;;;;;;;;;21.31;100.00;100683.56;4971289;28;19910;-69
2023/06/23 04:02:16;;;;;;;;;;;;;;;21.19;100.00;100680.97;4954633;28;20008;-64
2023/06/23 04:04:43;;;;;;;;;;;;;;;21.08;100.00;100673.97;4971350;28;19918;-68
2023/06/23 04:07:09;;;;;;;;;;;;;;;21.17;100.00;100684.47;4971600;28;19917;-71
2023/06/23 04:09:36;;;;;;;;;;;;;;;21.08;100.00;100683.63;4971445;28;20069;-67
2023/06/23 04:12:03;;;;;;;;;;;;;;;21.10;100.00;100676.63;4971442;28;19920;-70
2023/06/23 04:14:30;;;;;;;;;;;;;;;21.07;100.00;100677.50;4967829;28;19925;-66
2023/06/23 04:16:55;;;;;;;;;;;;;;;20.85;100.00;100688.03;4971733;28;19918;-65
2023/06/23 04:19:25;;;;;;;;;;;;;;;20.67;100.00;100686.31;4971296;28;19925;-64
2023/06/23 04:21:51;;;;;;;;;;;;;;;20.83;100.00;100688.94;4971435;28;19914;-70
2023/06/23 04:24:17;;;;;;;;;;;;;;;20.69;100.00;100687.16;4971304;28;19921;-66
2023/06/23 04:26:44;;;;;;;;;;;;;;;20.83;100.00;100692.41;4971499;28;19937;-67
2023/06/23 04:29:10;;;;;;;;;;;;;;;20.79;100.00;100698.56;4971329;28;19918;-68
2023/06/23 04:31:37;;;;;;;;;;;;;;;20.61;100.00;100693.28;4971705;28;19957;-66
2023/06/23 04:34:03;;;;;;;;;;;;;;;20.71;100.00;100694.16;4971258;28;19933;-68
2023/06/23 04:36:32;;;;;;;;;;;;;;;20.50;100.00;100702.03;4971382;28;20408;-65
2023/06/23 04:38:58;;;;;;;;;;;;;;;20.63;100.00;100694.19;4971136;28;19918;-64
2023/06/23 04:41:26;;;;;;;;;;;;;;;20.68;100.00;100702.91;4971528;28;19914;-65
2023/06/23 04:43:52;;;;;;;;;;;;;;;20.71;100.00;100696.78;4953806;28;19964;-67
2023/06/23 04:46:21;;;;;;;;;;;;;;;20.88;100.00;100697.66;4971615;28;19997;-65
2023/06/23 04:48:59;;;;;;;;;;;;;;;21.12;100.00;100691.50;4971092;28;20353;-68
2023/06/23 04:51:28;;;;;;;;;;;;;;;21.35;100.00;100687.91;4971367;28;19922;-67
2023/06/23 04:53:57;;;;;;;;;;;;;;;21.42;100.00;100694.88;4970680;28;20387;-68
2023/06/23 04:56:23;;;;;;;;;;;;;;;21.62;100.00;100699.19;4971419;28;19964;-67
2023/06/23 04:58:52;;;;;;;;;;;;;;;21.76;100.00;100705.25;4973527;28;19914;-64
2023/06/23 05:01:18;;;;;;;;;;;;;;;21.67;100.00;100705.31;4975051;28;19914;-67
2023/06/23 05:03:44;;;;;;;;;;;;;;;21.63;100.00;100704.44;4974885;28;19921;-65
2023/06/23 05:06:11;;;;;;;;;;;;;;;21.73;100.00;100697.41;4957251;28;20270;-68
2023/06/23 05:08:36;;;;;;;;;;;;;;;21.92;100.00;100695.53;4973746;28;20056;-68
2023/06/23 05:11:05;;;;;;;;;;;;;;;22.07;100.00;100694.53;4975036;28;20009;-67
2023/06/23 05:13:32;;;;;;;;;;;;;;;22.25;100.00;100697.91;4974511;28;19910;-65
2023/06/23 05:15:58;;;;;;;;;;;;;;;22.39;100.00;100703.09;4973795;28;19929;-64
2023/06/23 05:18:24;;;;;;;;;;;;;;;22.53;100.00;100708.25;4974720;28;20296;-69
2023/06/23 05:20:51;;;;;;;;;;;;;;;22.66;100.00;100715.16;4974069;28;19921;-66
2023/06/23 05:23:17;;;;;;;;;;;;;;;22.74;99.76;100725.59;4973890;28;19914;-67
2023/06/23 05:25:44;;;;;;;;;;;;;;;22.83;99.96;100719.38;4974136;28;20250;-69
2023/06/23 05:28:11;;;;;;;;;;;;;;;22.93;98.93;100716.63;4974283;28;19914;-65
2023/06/23 05:30:37;;;;;;;;;;;;;;;23.06;97.86;100716.50;4974329;28;19961;-68
2023/06/23 05:33:07;;;;;;;;;;;;;;;23.12;98.11;100723.47;4974440;28;19925;-68
2023/06/23 05:35:33;;;;;;;;;;;;;;;23.11;94.60;100722.59;4973843;28;19921;-68
2023/06/23 05:38:00;;;;;;;;;;;;;;;23.14;93.61;100719.94;4974179;28;19920;-65
2023/06/23 05:40:25;;;;;;;;;;;;;;;23.18;93.11;100720.78;4974121;28;19921;-67
2023/06/23 05:42:51;;;;;;;;;;;;;;;23.19;92.69;100712.88;4974056;28;20372;-66
2023/06/23 05:45:17;;;;;;;;;;;;;;;23.23;92.28;100716.38;4974109;28;20353;-66
2023/06/23 05:47:47;;;;;;;;;;;;;;;23.31;89.55;100722.41;4981150;28;20363;-68
2023/06/23 05:50:23;;;;;;;;;;;;;;;23.34;89.55;100725.00;4960440;28;19914;-66
2023/06/23 05:52:54;;;;;;;;;;;;;;;23.47;90.40;100730.13;4973923;28;20016;-64
2023/06/23 05:55:20;;;;;;;;;;;;;;;23.65;91.13;100731.66;4973622;28;19918;-69
2023/06/23 05:57:47;;;;;;;;;;;;;;;23.74;91.24;100735.03;4973878;28;19921;-69
2023/06/23 06:00:14;;;;;;;;;;;;;;;23.89;90.17;100730.47;4973451;28;19914;-66
2023/06/23 06:02:41;;;;;;;;;;;;;;;23.99;87.35;100740.00;4973479;28;19914;-65
2023/06/23 06:05:08;;;;;;;;;;;;;;;24.08;84.49;100735.50;4973754;28;19925;-69
2023/06/23 06:07:37;;;;;;;;;;;;;;;24.09;83.62;100739.84;4973710;28;19921;-65
2023/06/23 06:10:04;;;;;;;;;;;;;;;24.16;83.75;100736.25;4973090;28;19914;-67
2023/06/23 06:12:30;;;;;;;;;;;;;;;24.21;83.21;100739.69;4973687;28;19914;-70
2023/06/23 06:14:59;;;;;;;;;;;;;;;24.27;81.47;100742.22;4973355;28;19968;-69
2023/06/23 06:17:26;;;;;;;;;;;;;;;24.29;82.41;100735.16;4938792;28;19925;-68
2023/06/23 06:19:53;;;;;;;;;;;;;;;24.36;82.58;100739.44;4973453;28;19990;-67
2023/06/23 06:22:19;;;;;;;;;;;;;;;24.43;81.95;100739.34;4973377;28;20436;-69
2023/06/23 06:24:45;;;;;;;;;;;;;;;24.49;82.43;100736.63;4973487;28;20016;-66
2023/06/23 06:27:11;;;;;;;;;;;;;;;24.50;80.76;100738.34;4973295;28;19987;-66
2023/06/23 06:29:37;;;;;;;;;;;;;;;24.56;81.74;100738.22;4973129;28;19926;-65
2023/06/23 06:32:04;;;;;;;;;;;;;;;24.75;80.12;100735.31;4973052;28;19957;-67
2023/06/23 06:34:30;;;;;;;;;;;;;;;24.81;79.50;100724.63;4955791;28;19914;-69
2023/06/23 06:36:56;;;;;;;;;;;;;;;24.78;79.60;100730.84;4972922;28;19921;-65
2023/06/23 06:39:22;;;;;;;;;;;;;;;24.84;80.98;100730.75;4973008;28;19914;-68
2023/06/23 06:41:49;;;;;;;;;;;;;;;24.95;78.93;100727.91;4973028;28;19949;-68
2023/06/23 06:44:14;;;;;;;;;;;;;;;25.08;80.17;100722.41;4960065;28;20004;-64
2023/06/23 06:46:42;;;;;;;;;;;;;;;25.15;80.48;100719.59;4972503;28;20009;-68
2023/06/23 06:49:08;;;;;;;;;;;;;;;25.13;78.86;100718.75;4972892;28;19968;-68
2023/06/23 06:51:35;;;;;;;;;;;;;;;25.01;78.40;100709.31;4972934;28;19918;-68
2023/06/23 06:54:00;;;;;;;;;;;;;;;25.10;78.42;100708.25;4973030;28;19914;-68
2023/06/23 06:56:26;;;;;;;;;;;;;;;25.20;77.66;100706.31;4973093;28;19921;-64
2023/06/23 06:58:51;;;;;;;;;;;;;;;25.32;78.48;100702.53;4972462;28;20332;-67
2023/06/23 07:01:16;;;;;;;;;;;;;;;25.49;78.60;100702.22;4972794;28;19914;-65
2023/06/23 07:03:42;;;;;;;;;;;;;;;25.54;77.68;100705.63;4954144;28;19914;-65
2023/06/23 07:06:08;;;;;;;;;;;;;;;25.64;76.12;100704.50;4973000;28;20368;-68
2023/06/23 07:08:34;;;;;;;;;;;;;;;25.77;74.75;100706.88;4972397;28;19925;-64
2023/06/23 07:10:59;;;;;;;;;;;;;;;25.86;75.25;100706.69;4972462;28;20017;-68
2023/06/23 07:13:25;;;;;;;;;;;;;;;25.98;73.18;100702.88;4972615;28;19914;-69
2023/06/23 07:15:50;;;;;;;;;;;;;;;26.02;74.14;100706.31;4972425;28;20299;-64
2023/06/23 07:18:15;;;;;;;;;;;;;;;26.07;72.59;100700.06;4955039;28;19922;-64
2023/06/23 07:20:41;;;;;;;;;;;;;;;26.19;71.65;100703.31;4971845;28;20269;-67
2023/06/23 07:23:06;;;;;;;;;;;;;;;26.25;75.00;100697.88;4972464;28;19954;-65
2023/06/23 07:25:31;;;;;;;;;;;;;;;26.28;72.05;100705.72;4972173;28;19914;-67
2023/06/23 07:27:57;;;;;;;;;;;;;;;26.34;73.44;100705.56;4967307;28;19937;-68
2023/06/23 07:30:22;;;;;;;;;;;;;;;26.36;72.72;100693.19;4972212;28;19914;-65
2023/06/23 07:32:47;;;;;;;;;;;;;;;26.48;73.09;100698.16;4972205;28;19914;-64
2023/06/23 07:35:13;;;;;;;;;;;;;;;26.54;72.27;100691.81;4972286;28;20295;-69
2023/06/23 07:37:38;;;;;;;;;;;;;;;26.54;71.73;100694.47;4971906;28;20427;-70
2023/06/23 07:40:05;;;;;;;;;;;;;;;26.56;71.94;100692.66;4972012;28;19987;-67
2023/06/23 07:42:30;;;;;;;;;;;;;;;26.50;71.67;100691.97;4971841;28;19914;-63
2023/06/23 07:44:56;;;;;;;;;;;;;;;26.52;72.45;100696.31;4971907;28;19918;-68
2023/06/23 07:47:21;;;;;;;;;;;;;;;26.59;72.95;100687.31;4971539;28;20484;-67
2023/06/23 07:49:47;;;;;;;;;;;;;;;26.74;72.94;100693.13;4972120;28;20375;-67
2023/06/23 07:52:12;;;;;;;;;;;;;;;26.81;71.05;100692.06;4971844;28;19914;-65
2023/06/23 07:54:37;;;;;;;;;;;;;;;26.90;70.22;100681.19;4971696;28;20388;-68
2023/06/23 07:57:07;;;;;;;;;;;;;;;27.02;69.56;100689.72;4971518;28;20352;-69
2023/06/23 07:59:33;;;;;;;;;;;;;;;27.12;68.53;100670.00;4971368;28;20803;-66
2023/06/23 08:01:58;;;;;;;;;;;;;;;27.11;67.36;100673.56;4971567;28;19973;-70
2023/06/23 08:04:23;;;;;;;;;;;;;;;27.16;67.09;100666.34;4971964;28;19914;-65
2023/06/23 08:06:49;;;;;;;;;;;;;;;27.16;66.13;100663.69;4971491;28;19914;-64
2023/06/23 08:09:15;;;;;;;;;;;;;;;27.22;66.04;100663.50;4971342;28;19972;-65
2023/06/23 08:11:40;;;;;;;;;;;;;;;27.37;64.39;100666.63;4971396;28;19914;-67
2023/06/23 08:14:06;;;;;;;;;;;;;;;27.41;64.21;100665.66;4971494;28;20277;-67
2023/06/23 08:16:31;;;;;;;;;;;;;;;27.40;56.74;100663.91;4971514;28;19918;-69
2023/06/23 08:18:56;;;;;;;;;;;;;;;27.43;56.09;100658.53;4971440;28;20024;-67
2023/06/23 08:21:22;;;;;;;;;;;;;;;27.52;60.12;100652.06;4971449;28;20332;-64
2023/06/23 08:23:48;;;;;;;;;;;;;;;27.45;62.11;100651.38;4953237;28;20049;-64
2023/06/23 08:26:13;;;;;;;;;;;;;;;27.49;63.58;100653.03;4953127;28;19922;-67
2023/06/23 08:28:38;;;;;;;;;;;;;;;27.65;63.06;100653.41;4971081;28;19921;-68
2023/06/23 08:31:04;;;;;;;;;;;;;;;27.82;60.50;100652.88;4971222;28;19914;-66
2023/06/23 08:33:29;;;;;;;;;;;;;;;27.81;59.25;100648.50;4974971;28;20304;-68
2023/06/23 08:35:54;;;;;;;;;;;;;;;27.92;62.06;100654.31;4975371;28;20296;-69
2023/06/23 08:38:22;;;;;;;;;;;;;;;27.97;58.57;100648.00;4975413;28;19914;-68
2023/06/23 08:40:48;;;;;;;;;;;;;;;28.09;58.05;100640.53;4975314;28;19910;-65
2023/06/23 08:43:14;;;;;;;;;;;;;;;28.11;58.69;100645.78;4974835;28;19921;-65
2023/06/23 08:45:43;;;;;;;;;;;;;;;28.10;59.59;100649.34;4975201;28;19918;-67
2023/06/23 08:48:11;;;;;;;;;;;;;;;28.11;60.84;100650.22;4975399;28;19914;-67
2023/06/23 08:50:37;;;;;;;;;;;;;;;28.19;64.45;100637.59;4975083;28;19914;-66
2023/06/23 08:53:05;;;;;;;;;;;;;;;28.18;62.72;100635.84;4975222;28;20308;-68
2023/06/23 08:55:34;;;;;;;;;;;;;;;28.20;64.51;100632.22;4975470;28;19925;-66
2023/06/23 08:58:02;;;;;;;;;;;;;;;28.39;59.81;100634.25;4957269;28;19918;-65
2023/06/23 09:00:28;;;;;;;;;;;;;;;28.53;61.32;100625.78;4974940;28;19965;-64
2023/06/23 09:02:54;;;;;;;;;;;;;;;28.70;61.41;100618.09;4974973;28;19914;-70
2023/06/23 09:05:19;;;;;;;;;;;;;;;28.75;61.93;100625.91;4974903;28;19922;-68
2023/06/23 09:07:44;;;;;;;;;;;;;;;28.89;60.69;100622.75;4974881;28;19914;-66
2023/06/23 09:10:10;;;;;;;;;;;;;;;29.09;59.83;100619.34;4974333;28;20443;-69
2023/06/23 09:12:38;;;;;;;;;;;;;;;29.27;58.56;100614.22;4974842;28;19936;-69
2023/06/23 09:15:04;;;;;;;;;;;;;;;29.43;61.45;100611.88;4974813;28;20008;-67
2023/06/23 09:17:30;;;;;;;;;;;;;;;29.57;60.26;100617.50;4974705;28;20025;-65
2023/06/23 09:19:56;;;;;;;;;;;;;;;29.64;60.32;100618.13;4974512;28;20356;-65
2023/06/23 09:22:22;;;;;;;;;;;;;;;29.65;56.88;100612.75;4974484;28;19953;-69
2023/06/23 09:24:49;;;;;;;;;;;;;;;29.62;55.38;100615.53;4974428;28;19961;-65
2023/06/23 09:27:14;;;;;;;;;;;;;;;29.63;54.70;100613.72;4955917;28;20380;-68
2023/06/23 09:29:40;;;;;;;;;;;;;;;29.71;57.49;100614.28;4974608;28;19913;-65
2023/06/23 09:32:08;;;;;;;;;;;;;;;29.80;57.97;100607.72;4974272;28;19914;-69
2023/06/23 09:34:34;;;;;;;;;;;;;;;29.73;56.06;100600.91;4974497;28;19914;-68
2023/06/23 09:37:08;;;;;;;;;;;;;;;29.88;55.79;100602.09;4974232;28;19917;-66
2023/06/23 09:39:35;;;;;;;;;;;;;;;30.04;56.06;100600.53;4974460;28;19928;-66
2023/06/23 09:42:03;;;;;;;;;;;;;;;30.22;56.59;100600.66;4974462;28;20307;-67
2023/06/23 09:44:36;;;;;;;;;;;;;;;30.36;58.75;100598.28;4973349;28;19914;-66
2023/06/23 09:47:02;;;;;;;;;;;;;;;30.50;54.57;100606.53;4973752;28;19914;-65
2023/06/23 09:49:28;;;;;;;;;;;;;;;30.59;55.24;100599.09;4974318;28;19914;-68
2023/06/23 09:51:54;;;;;;;;;;;;;;;30.69;52.88;100597.72;4973604;28;19925;-64
2023/06/23 09:54:39;;;;;;;;;;;;;;;30.62;52.61;100591.81;4970674;28;19914;-67
2023/06/23 09:57:14;;;;;;;;;;;;;;;30.66;53.18;100595.22;4972203;28;19918;-68
2023/06/23 09:59:40;;;;;;;;;;;;;;;30.83;51.96;100589.13;4956167;28;19918;-69
2023/06/23 10:02:07;;;;;;;;;;;;;;;30.99;51.77;100586.59;4963552;28;20304;-69
2023/06/23 10:04:32;;;;;;;;;;;;;;;31.09;51.48;100582.63;4952460;28;20798;-68
2023/06/23 10:06:58;;;;;;;;;;;;;;;31.16;51.50;100580.50;4955562;28;19922;-69
2023/06/23 10:09:24;;;;;;;;;;;;;;;31.16;50.97;100577.00;4963954;28;19921;-68
2023/06/23 10:11:49;;;;;;;;;;;;;;;31.21;49.73;100569.63;4955982;28;20280;-68
2023/06/23 10:14:15;;;;;;;;;;;;;;;31.32;48.88;100569.09;4959316;28;20279;-70
2023/06/23 10:16:43;;;;;;;;;;;;;;;31.46;45.74;100569.28;4971159;28;20021;-67
2023/06/23 10:19:08;;;;;;;;;;;;;;;31.53;46.76;100569.84;4971730;28;19969;-66
2023/06/23 10:21:33;;;;;;;;;;;;;;;31.65;46.18;100568.41;4960623;28;20712;-70
2023/06/23 10:24:07;;;;;;;;;;;;;;;31.71;45.92;100566.28;4968241;28;20303;-67
2023/06/23 10:26:36;;;;;;;;;;;;;;;31.88;47.14;100565.44;4974139;28;20360;-65
2023/06/23 10:29:06;;;;;;;;;;;;;;;32.06;48.29;100563.63;4972908;28;19925;-66
2023/06/23 10:31:32;;;;;;;;;;;;;;;32.19;51.58;100566.56;4972395;28;19914;-68
2023/06/23 10:33:58;;;;;;;;;;;;;;;32.37;46.54;100558.53;4972795;28;19914;-69
2023/06/23 10:36:24;;;;;;;;;;;;;;;32.49;46.35;100548.97;4972815;28;19914;-69
2023/06/23 10:38:51;;;;;;;;;;;;;;;32.55;44.08;100549.53;4972957;28;19921;-69
2023/06/23 10:41:18;;;;;;;;;;;;;;;32.70;44.42;100553.19;4973606;28;20015;-67
2023/06/23 10:43:47;;;;;;;;;;;;;;;32.87;45.11;100549.59;4972908;28;19977;-69
2023/06/23 10:46:13;;;;;;;;;;;;;;;33.06;48.69;100548.56;4972057;28;20307;-68
2023/06/23 10:48:39;;;;;;;;;;;;;;;33.17;44.65;100545.28;4973046;28;19914;-69
2023/06/23 10:51:05;;;;;;;;;;;;;;;33.28;42.23;100539.34;4972811;28;20002;-69
2023/06/23 10:53:32;;;;;;;;;;;;;;;33.30;41.56;100545.47;4972819;28;20292;-67
2023/06/23 10:55:57;;;;;;;;;;;;;;;33.08;41.99;100543.16;4972715;28;20386;-68
2023/06/23 10:58:23;;;;;;;;;;;;;;;32.66;42.16;100535.59;4972504;28;20017;-68
2023/06/23 11:00:54;;;;;;;;;;;;;;;32.85;41.73;100529.22;4972499;28;20343;-69
2023/06/23 11:03:30;;;;;;;;;;;;;;;32.95;41.48;100524.25;4972564;28;19953;-65
2023/06/23 11:05:56;;;;;;;;;;;;;;;32.94;41.64;100522.50;4965100;28;19914;-65
2023/06/23 11:08:28;;;;;;;;;;;;;;;33.11;40.47;100522.44;4954597;28;19918;-69
2023/06/23 11:10:59;;;;;;;;;;;;;;;33.28;41.03;100521.47;4952924;28;19925;-65
2023/06/23 11:13:35;;;;;;;;;;;;;;;33.13;40.24;100527.69;4953002;28;19914;-70
2023/06/23 11:16:00;;;;;;;;;;;;;;;33.24;40.89;100519.91;4953233;28;20286;-66
2023/06/23 11:18:26;;;;;;;;;;;;;;;33.19;41.99;100519.31;4954608;28;20017;-69
2023/06/23 11:20:52;;;;;;;;;;;;;;;33.38;48.87;100517.31;4959676;28;19919;-68
2023/06/23 11:23:18;;;;;;;;;;;;;;;33.60;45.82;100516.06;4953015;28;19918;-68
2023/06/23 11:25:47;;;;;;;;;;;;;;;33.80;43.98;100514.03;4952861;28;19965;-66
2023/06/23 11:28:22;;;;;;;;;;;;;;;33.78;41.05;100507.91;4952982;28;19921;-67
2023/06/23 11:31:00;;;;;;;;;;;;;;;33.80;40.12;100509.53;4952978;28;19989;-68
2023/06/23 11:33:29;;;;;;;;;;;;;;;33.83;39.96;100509.41;4958889;28;19922;-66
2023/06/23 11:35:55;;;;;;;;;;;;;;;33.99;40.69;100500.41;4964059;28;20017;-68
2023/06/23 11:38:20;;;;;;;;;;;;;;;34.18;37.77;100494.78;4952457;28;20017;-70
2023/06/23 11:40:50;;;;;;;;;;;;;;;34.22;38.01;100485.59;4953092;28;19915;-66
2023/06/23 11:43:15;;;;;;;;;;;;;;;34.38;41.67;100484.66;4952881;28;19918;-66
2023/06/23 11:45:51;;;;;;;;;;;;;;;34.58;42.03;100491.44;4952452;28;19929;-68
2023/06/23 11:48:16;;;;;;;;;;;;;;;34.78;39.28;100490.16;4958157;28;19922;-65
2023/06/23 11:50:42;;;;;;;;;;;;;;;34.92;40.47;100487.47;4963510;28;19918;-67
2023/06/23 11:53:07;;;;;;;;;;;;;;;35.05;42.22;100489.34;4954388;28;19914;-68
2023/06/23 11:55:33;;;;;;;;;;;;;;;35.21;42.35;100487.38;4965142;28;19942;-68
2023/06/23 11:57:58;;;;;;;;;;;;;;;35.28;39.10;100482.44;4952561;28;20309;-68
2023/06/23 12:00:23;;;;;;;;;;;;;;;35.40;39.31;100478.97;4952330;28;20423;-70
2023/06/23 12:02:49;;;;;;;;;;;;;;;35.35;37.82;100469.47;4952323;28;19985;-66
2023/06/23 12:05:15;;;;;;;;;;;;;;;34.28;43.15;100462.91;4951883;28;20305;-68
2023/06/23 12:07:40;;;;;;;;;;;;;;;33.92;40.78;100465.13;4934742;28;19925;-71
2023/06/23 12:10:06;;;;;;;;;;;;;;;34.30;40.99;100467.22;4962071;28;19921;-69
2023/06/23 12:12:32;;;;;;;;;;;;;;;34.49;40.09;100474.13;4971290;28;20028;-65
2023/06/23 12:14:59;;;;;;;;;;;;;;;34.74;38.52;100461.81;4971430;28;19918;-67
2023/06/23 12:17:24;;;;;;;;;;;;;;;34.67;38.18;100462.22;4971179;28;19918;-68
2023/06/23 12:19:51;;;;;;;;;;;;;;;34.88;38.40;100461.81;4971094;28;20409;-66
2023/06/23 12:22:17;;;;;;;;;;;;;;;34.99;39.65;100453.94;4954311;28;20315;-66
2023/06/23 12:24:43;;;;;;;;;;;;;;;35.10;37.39;100453.19;4971765;28;20542;-69
2023/06/23 12:27:09;;;;;;;;;;;;;;;35.07;37.61;100455.22;4936935;28;19957;-69
2023/06/23 12:29:35;;;;;;;;;;;;;;;34.74;38.16;100451.94;4964881;28;20387;-68
2023/06/23 12:32:02;;;;;;;;;;;;;;;34.91;42.01;100448.19;4960468;28;19918;-70